createdAt,value
2023-05-12T00:08:20.002Z,100634.13
2023-05-12T00:10:47.366Z,100725.34
2023-05-12T00:13:15.072Z,100648.97
2023-05-12T00:15:43.914Z,100664.06
2023-05-12T00:18:11.011Z,100694.66
2023-05-12T00:20:38.661Z,100661.25
2023-05-12T00:23:05.778Z,100740.53
2023-05-12T00:25:33.322Z,100670.06
2023-05-12T00:28:00.503Z,100749.84
2023-05-12T00:30:27.980Z,100672.38
2023-05-12T00:32:56.621Z,100742.53
2023-05-12T00:35:23.856Z,100732.69
2023-05-12T00:37:50.996Z,100732.81
2023-05-12T00:40:18.981Z,100739.75
2023-05-12T00:42:46.065Z,100670.13
2023-05-12T00:45:13.430Z,100741.97
2023-05-12T00:47:40.602Z,100739.88
2023-05-12T00:50:09.825Z,100739.69
2023-05-12T00:55:33.519Z,100626.47
2023-05-12T00:58:00.871Z,100729.88
2023-05-12T01:00:27.749Z,100718.50
2023-05-12T01:02:58.636Z,100639.84
2023-05-12T01:05:32.141Z,100733.69
2023-05-12T01:08:01.523Z,100682.88
2023-05-12T01:10:28.581Z,100655.66
2023-05-12T01:12:55.855Z,100726.94
2023-05-12T01:15:23.516Z,100727.31
2023-05-12T01:17:57.640Z,100652.97
2023-05-12T01:20:28.803Z,100729.75
2023-05-12T01:22:58.418Z,100707.78
2023-05-12T01:25:29.062Z,100661.34
2023-05-12T01:27:57.919Z,100674.75
2023-05-12T01:30:26.096Z,100720.19
2023-05-12T01:32:53.741Z,100729.44
2023-05-12T01:35:20.982Z,100650.56
2023-05-12T01:37:48.255Z,100698.44
2023-05-12T01:40:16.469Z,100714.03
2023-05-12T01:42:43.849Z,100622.69
2023-05-12T01:45:40.954Z,100696.13
2023-05-12T01:48:09.560Z,100717.66
2023-05-12T01:50:36.476Z,100641.72
2023-05-12T01:53:04.016Z,100712.84
2023-05-12T01:55:31.460Z,100713.56
2023-05-12T01:57:58.581Z,100629.53
2023-05-12T02:00:25.631Z,100694.16
2023-05-12T02:02:53.443Z,100705.34
2023-05-12T02:05:22.272Z,100705.34
2023-05-12T02:07:49.519Z,100696.97
2023-05-12T02:10:16.912Z,100696.13
2023-05-12T02:12:45.035Z,100652.50
2023-05-12T02:15:12.006Z,100630.25
2023-05-12T02:17:39.839Z,100703.59
2023-05-12T02:20:08.425Z,100711.72
2023-05-12T02:22:37.407Z,100705.03
2023-05-12T02:25:05.210Z,100652.00
2023-05-12T02:27:32.597Z,100691.84
2023-05-12T02:29:59.668Z,100651.66
2023-05-12T02:32:30.195Z,100646.88
2023-05-12T02:34:57.278Z,100639.34
2023-05-12T02:37:24.546Z,100658.53
2023-05-12T02:39:52.920Z,100709.31
2023-05-12T02:42:22.295Z,100647.59
2023-05-12T02:44:49.254Z,100661.31
2023-05-12T02:47:16.657Z,100662.19
2023-05-12T02:49:43.671Z,100647.44
2023-05-12T02:52:11.327Z,100658.53
2023-05-12T02:54:38.416Z,100736.16
2023-05-12T02:57:07.603Z,100667.06
2023-05-12T02:59:34.462Z,100737.75
2023-05-12T03:02:01.772Z,100660.66
2023-05-12T03:04:29.135Z,100667.97
2023-05-12T03:06:57.195Z,100671.63
2023-05-12T03:09:24.216Z,100685.47
2023-05-12T03:11:51.517Z,100646.13
2023-05-12T03:14:20.172Z,100745.50
2023-05-12T03:16:47.600Z,100691.03
2023-05-12T03:19:14.720Z,100738.78
2023-05-12T03:21:44.780Z,100672.88
2023-05-12T03:24:15.459Z,100674.28
2023-05-12T03:26:42.784Z,100740.75
2023-05-12T03:29:09.725Z,100676.09
2023-05-12T03:31:40.121Z,100671.09
2023-05-12T03:34:07.165Z,100658.81
2023-05-12T03:36:34.826Z,100705.09
2023-05-12T03:39:03.111Z,100666.47
2023-05-12T03:41:30.616Z,100671.13
2023-05-12T03:43:57.610Z,100730.31
2023-05-12T03:46:25.533Z,100658.53
2023-05-12T03:48:54.065Z,100678.81
2023-05-12T03:51:21.383Z,100662.84
2023-05-12T03:53:48.341Z,100630.41
2023-05-12T03:56:15.798Z,100704.00
2023-05-12T03:58:42.796Z,100671.94
2023-05-12T04:01:10.366Z,100676.59
2023-05-12T04:03:37.493Z,100672.69
2023-05-12T04:06:06.601Z,100667.50
2023-05-12T04:08:33.806Z,100738.88
2023-05-12T04:11:04.422Z,100645.81
2023-05-12T04:13:31.971Z,100679.69
2023-05-12T04:16:00.198Z,100659.22
2023-05-12T04:18:28.285Z,100667.16
2023-05-12T04:20:59.099Z,100657.84
2023-05-12T04:23:27.594Z,100690.72
2023-05-12T04:25:55.039Z,100692.66
2023-05-12T04:28:22.161Z,100686.09
2023-05-12T04:30:49.480Z,100760.28
2023-05-12T04:33:16.570Z,100730.31
2023-05-12T04:35:43.904Z,100756.38
2023-05-12T04:38:10.947Z,100681.47
2023-05-12T04:40:39.565Z,100691.41
2023-05-12T04:43:08.957Z,100759.69
2023-05-12T04:45:36.180Z,100701.72
2023-05-12T04:48:03.373Z,100691.22
2023-05-12T04:50:30.642Z,100753.34
2023-05-12T04:52:57.830Z,100686.16
2023-05-12T04:55:25.519Z,100726.72
2023-05-12T04:57:53.906Z,100751.75
2023-05-12T05:00:21.419Z,100678.31
2023-05-12T05:02:48.604Z,100664.28
2023-05-12T05:05:16.224Z,100674.81
2023-05-12T05:07:43.317Z,100674.50
2023-05-12T05:10:11.085Z,100728.91
2023-05-12T05:12:38.220Z,100676.03
2023-05-12T05:15:09.836Z,100679.00
2023-05-12T05:17:36.985Z,100691.75
2023-05-12T05:20:11.371Z,100692.44
2023-05-12T05:22:39.861Z,100658.97
2023-05-12T05:25:08.383Z,100654.63
2023-05-12T05:27:35.422Z,100753.78
2023-05-12T05:30:02.741Z,100752.50
2023-05-12T05:32:31.161Z,100680.91
2023-05-12T05:34:58.416Z,100678.56
2023-05-12T05:37:25.745Z,100759.28
2023-05-12T05:39:53.019Z,100757.31
2023-05-12T05:42:20.607Z,100730.44
2023-05-12T05:44:47.767Z,100682.31
2023-05-12T05:47:14.920Z,100695.59
2023-05-12T05:49:43.992Z,100699.38
2023-05-12T05:52:11.091Z,100759.34
2023-05-12T05:54:38.598Z,100703.50
2023-05-12T05:57:06.640Z,100684.75
2023-05-12T05:59:33.899Z,100737.28
2023-05-12T06:02:01.170Z,100705.41
2023-05-12T06:04:29.025Z,100709.59
2023-05-12T06:06:57.447Z,100715.09
2023-05-12T06:09:24.836Z,100776.19
2023-05-12T06:11:51.767Z,100783.91
2023-05-12T06:14:19.134Z,100627.09
2023-05-12T06:16:46.360Z,100723.47
2023-05-12T06:19:13.777Z,100778.09
2023-05-12T06:21:40.888Z,100709.06
2023-05-12T06:24:09.566Z,100706.09
2023-05-12T06:26:36.701Z,100789.56
2023-05-12T06:29:06.557Z,100712.03
2023-05-12T06:31:33.821Z,100700.31
2023-05-12T06:34:01.234Z,100784.91
2023-05-12T06:36:28.921Z,100728.41
2023-05-12T06:38:56.277Z,100662.03
2023-05-12T06:41:25.320Z,100712.06
2023-05-12T06:43:52.848Z,100722.13
2023-05-12T06:46:19.848Z,100793.78
2023-05-12T06:48:47.312Z,100728.59
2023-05-12T06:51:14.318Z,100767.56
2023-05-12T06:53:41.993Z,100735.47
2023-05-12T06:56:09.471Z,100727.91
2023-05-12T06:58:38.281Z,100674.38
2023-05-12T07:01:06.027Z,100734.66
2023-05-12T07:03:33.604Z,100810.38
2023-05-12T07:06:00.986Z,100733.34
2023-05-12T07:08:28.435Z,100745.28
2023-05-12T07:10:55.527Z,100786.69
2023-05-12T07:13:22.870Z,100821.44
2023-05-12T07:15:51.330Z,100745.09
2023-05-12T07:18:18.755Z,100816.69
2023-05-12T07:20:46.596Z,100764.44
2023-05-12T07:23:14.122Z,100731.81
2023-05-12T07:25:41.214Z,100813.81
2023-05-12T07:28:08.494Z,100740.19
2023-05-12T07:30:36.404Z,100760.56
2023-05-12T07:33:05.466Z,100752.16
2023-05-12T07:35:32.550Z,100813.41
2023-05-12T07:38:03.284Z,100819.06
2023-05-12T07:40:30.375Z,100762.84
2023-05-12T07:42:57.997Z,100808.00
2023-05-12T07:45:25.233Z,100754.69
2023-05-12T07:47:52.528Z,100828.50
2023-05-12T07:50:21.457Z,100759.56
2023-05-12T07:52:49.566Z,100781.06
2023-05-12T07:55:17.149Z,100780.75
2023-05-12T07:57:44.688Z,100776.00
2023-05-12T08:00:13.441Z,100774.41
2023-05-12T08:02:42.081Z,100851.13
2023-05-12T08:05:12.643Z,100773.28
2023-05-12T08:07:43.705Z,100785.69
2023-05-12T08:10:12.993Z,100855.84
2023-05-12T08:12:40.780Z,100795.91
2023-05-12T08:15:08.639Z,100849.78
2023-05-12T08:17:36.091Z,100850.78
2023-05-12T08:20:06.642Z,100848.44
2023-05-12T08:22:34.216Z,100798.38
2023-05-12T08:25:02.535Z,100827.84
2023-05-12T08:27:29.897Z,100853.94
2023-05-12T08:29:56.947Z,100854.34
2023-05-12T08:32:24.600Z,100853.34
2023-05-12T08:34:51.715Z,100788.66
2023-05-12T08:37:19.126Z,100779.78
2023-05-12T08:39:46.278Z,100827.59
2023-05-12T08:42:28.619Z,100858.63
2023-05-12T08:44:56.103Z,100783.00
2023-05-12T08:47:25.785Z,100855.47
2023-05-12T08:49:59.783Z,100860.47
2023-05-12T08:52:29.290Z,100788.19
2023-05-12T08:54:57.000Z,100795.88
2023-05-12T08:57:28.166Z,100861.81
2023-05-12T08:59:59.214Z,100793.22
2023-05-12T09:02:37.786Z,100861.53
2023-05-12T09:05:09.286Z,100791.44
2023-05-12T09:07:39.844Z,100804.06
2023-05-12T09:10:19.673Z,100858.22
2023-05-12T09:13:00.832Z,100844.19
2023-05-12T09:15:34.083Z,100816.88
2023-05-12T09:18:01.561Z,100784.25
2023-05-12T09:20:31.877Z,100801.50
2023-05-12T09:23:00.249Z,100792.28
2023-05-12T09:25:27.316Z,100869.25
2023-05-12T09:27:59.085Z,100796.72
2023-05-12T09:30:30.246Z,100866.78
2023-05-12T09:33:07.134Z,100858.41
2023-05-12T09:35:38.637Z,100793.69
2023-05-12T09:38:07.473Z,100861.22
2023-05-12T09:40:34.532Z,100776.88
2023-05-12T09:43:03.784Z,100802.34
2023-05-12T09:45:33.926Z,100869.06
2023-05-12T09:48:09.602Z,100811.63
2023-05-12T09:50:47.421Z,100836.41
2023-05-12T09:53:17.873Z,100868.09
2023-05-12T09:55:45.176Z,100810.22
2023-05-12T09:58:16.429Z,100873.25
2023-05-12T10:01:12.840Z,100869.22
2023-05-12T10:03:33.871Z,100781.50
2023-05-12T10:06:03.825Z,100789.75
2023-05-12T10:08:37.666Z,100801.84
2023-05-12T10:11:06.463Z,100792.78
2023-05-12T10:13:35.484Z,100807.59
2023-05-12T10:16:03.280Z,100809.63
2023-05-12T10:18:33.338Z,100862.91
2023-05-12T10:21:01.280Z,100750.09
2023-05-12T10:23:29.377Z,100792.81
2023-05-12T10:26:01.993Z,100808.25
2023-05-12T10:28:29.756Z,100806.44
2023-05-12T10:30:58.997Z,100788.69
2023-05-12T10:33:27.625Z,100792.84
2023-05-12T10:35:54.842Z,100849.66
2023-05-12T10:38:22.282Z,100854.38
2023-05-12T10:40:53.709Z,100791.53
2023-05-12T10:43:23.169Z,100771.94
2023-05-12T10:46:10.680Z,100856.56
2023-05-12T10:48:50.749Z,100856.91
2023-05-12T10:51:21.020Z,100858.41
2023-05-12T10:53:54.843Z,100787.53
2023-05-12T10:56:24.567Z,100798.44
2023-05-12T10:59:09.828Z,100800.63
2023-05-12T11:01:39.745Z,100796.75
2023-05-12T11:04:13.149Z,100860.44
2023-05-12T11:06:41.347Z,100807.28
2023-05-12T11:09:09.284Z,100864.13
2023-05-12T11:11:36.882Z,100844.16
2023-05-12T11:14:04.501Z,100866.09
2023-05-12T11:16:31.715Z,100798.41
2023-05-12T11:19:04.673Z,100875.16
2023-05-12T11:21:32.959Z,100806.31
2023-05-12T11:24:01.060Z,100802.63
2023-05-12T11:26:28.414Z,100882.22
2023-05-12T11:28:57.111Z,100799.59
2023-05-12T11:31:25.082Z,100846.38
2023-05-12T11:34:12.012Z,100808.00
2023-05-12T11:36:40.680Z,100811.84
2023-05-12T11:39:13.843Z,100841.81
2023-05-12T11:41:42.670Z,100814.50
2023-05-12T11:44:14.976Z,100814.69
2023-05-12T11:46:42.637Z,100803.28
2023-05-12T11:49:12.736Z,100747.66
2023-05-12T11:51:43.182Z,100817.16
2023-05-12T11:54:10.854Z,100887.34
2023-05-12T11:56:47.338Z,100768.41
2023-05-12T11:59:25.280Z,100845.00
2023-05-12T12:01:52.258Z,100828.56
2023-05-12T12:04:31.635Z,100825.34
2023-05-12T12:06:58.886Z,100780.78
2023-05-12T12:09:31.403Z,100824.50
2023-05-12T12:11:58.792Z,100829.66
2023-05-12T12:14:30.149Z,100821.97
2023-05-12T12:16:57.353Z,100877.00
2023-05-12T12:19:29.136Z,100842.28
2023-05-12T12:21:56.737Z,100869.91
2023-05-12T12:24:27.072Z,100827.38
2023-05-12T12:26:54.137Z,100768.13
2023-05-12T12:29:23.797Z,100807.53
2023-05-12T12:31:50.817Z,100841.03
2023-05-12T12:34:18.355Z,100826.66
2023-05-12T12:36:49.378Z,100884.84
2023-05-12T12:39:19.032Z,100832.50
2023-05-12T12:41:48.118Z,100822.09
2023-05-12T12:44:15.771Z,100827.81
2023-05-12T12:46:42.878Z,100824.16
2023-05-12T12:49:10.383Z,100869.94
2023-05-12T12:51:46.169Z,100831.44
2023-05-12T12:54:16.357Z,100823.78
2023-05-12T12:56:44.482Z,100834.97
2023-05-12T12:59:12.356Z,100829.44
2023-05-12T13:01:39.493Z,100847.38
2023-05-12T13:04:07.234Z,100899.00
2023-05-12T13:06:34.728Z,100867.31
2023-05-12T13:09:04.079Z,100905.41
2023-05-12T13:11:35.008Z,100859.34
2023-05-12T13:14:04.946Z,100910.59
2023-05-12T13:16:34.636Z,100912.81
2023-05-12T13:19:02.443Z,100844.66
2023-05-12T13:21:29.663Z,100920.72
2023-05-12T13:23:57.154Z,100854.72
2023-05-12T13:26:24.127Z,100889.56
2023-05-12T13:28:52.901Z,100831.97
2023-05-12T13:31:22.257Z,100822.72
2023-05-12T13:33:49.608Z,100915.25
2023-05-12T13:36:16.718Z,100844.53
2023-05-12T13:38:50.519Z,100916.41
2023-05-12T13:41:17.616Z,100915.72
2023-05-12T13:43:45.076Z,100853.56
2023-05-12T13:46:13.502Z,100860.78
2023-05-12T13:48:40.778Z,100911.38
2023-05-12T13:51:07.821Z,100843.50
2023-05-12T13:53:38.512Z,100858.09
2023-05-12T13:56:06.358Z,100851.56
2023-05-12T13:58:33.803Z,100852.72
2023-05-12T14:01:02.359Z,100931.88
2023-05-12T14:03:31.235Z,100835.44
2023-05-12T14:05:58.502Z,100859.25
2023-05-12T14:08:25.950Z,100905.13
2023-05-12T14:10:53.059Z,100861.00
2023-05-12T14:13:20.654Z,100865.00
2023-05-12T14:15:49.787Z,100858.81
2023-05-12T14:18:17.818Z,100940.44
2023-05-12T14:20:46.684Z,100944.94
2023-05-12T14:23:13.837Z,100941.41
2023-05-12T14:25:40.919Z,100942.13
2023-05-12T14:28:10.001Z,100951.69
2023-05-12T14:30:37.484Z,100960.03
2023-05-12T14:33:05.110Z,100961.22
2023-05-12T14:35:34.738Z,100965.44
2023-05-12T14:38:03.522Z,100958.91
2023-05-12T14:40:30.758Z,100965.97
2023-05-12T14:43:00.081Z,100959.59
2023-05-12T14:45:28.389Z,100882.94
2023-05-12T14:47:55.837Z,100952.13
2023-05-12T14:50:23.304Z,100890.16
2023-05-12T14:52:53.339Z,100950.13
2023-05-12T14:55:22.163Z,100972.50
2023-05-12T14:57:49.683Z,100977.34
2023-05-12T15:00:18.423Z,100972.50
2023-05-12T15:02:45.972Z,100885.81
2023-05-12T15:05:13.650Z,100892.16
2023-05-12T15:07:41.381Z,100932.00
2023-05-12T15:10:09.363Z,100958.06
2023-05-12T15:12:38.119Z,100902.63
2023-05-12T15:15:08.352Z,100974.25
2023-05-12T15:17:35.737Z,100977.38
2023-05-12T15:20:03.803Z,100970.34
2023-05-12T15:22:31.624Z,100916.13
2023-05-12T15:24:58.969Z,100915.13
2023-05-12T15:27:26.507Z,100886.06
2023-05-12T15:29:54.877Z,100895.34
2023-05-12T15:32:22.288Z,100969.22
2023-05-12T15:34:49.596Z,100970.03
2023-05-12T15:37:17.311Z,100902.50
2023-05-12T15:39:44.563Z,100967.66
2023-05-12T15:42:12.600Z,100873.28
2023-05-12T15:44:41.578Z,100879.56
2023-05-12T15:47:10.836Z,100881.56
2023-05-12T15:49:37.582Z,100973.53
2023-05-12T15:52:05.391Z,100973.53
2023-05-12T15:54:32.425Z,100968.50
2023-05-12T15:56:59.812Z,100894.19
2023-05-12T15:59:28.351Z,100887.38
2023-05-12T16:01:56.268Z,100963.16
2023-05-12T16:04:25.457Z,100880.44
2023-05-12T16:06:52.712Z,100965.13
2023-05-12T16:09:20.454Z,100885.41
2023-05-12T16:11:48.926Z,100868.06
2023-05-12T16:14:16.178Z,100914.34
2023-05-12T16:16:48.153Z,100891.78
2023-05-12T16:19:15.620Z,100948.22
2023-05-12T16:21:44.608Z,100829.44
2023-05-12T16:24:12.907Z,100943.38
2023-05-12T16:26:41.267Z,100946.13
2023-05-12T16:29:08.453Z,100946.38
2023-05-12T16:31:36.498Z,100869.50
2023-05-12T16:34:03.536Z,100864.28
2023-05-12T16:36:32.144Z,100843.47
2023-05-12T16:39:00.669Z,100862.75
2023-05-12T16:41:28.778Z,100859.25
2023-05-12T16:43:56.468Z,100938.03
2023-05-12T16:46:24.345Z,100833.81
2023-05-12T16:48:51.535Z,100874.72
2023-05-12T16:51:18.802Z,100877.72
2023-05-12T16:53:46.257Z,100855.13
2023-05-12T16:56:14.895Z,100868.69
2023-05-12T16:58:42.436Z,100869.38
2023-05-12T17:01:09.829Z,100881.00
2023-05-12T17:03:37.090Z,100874.44
2023-05-12T17:06:05.090Z,100918.78
2023-05-12T17:08:35.419Z,100880.59
2023-05-12T17:11:04.404Z,100889.31
2023-05-12T17:13:35.813Z,100862.88
2023-05-12T17:16:03.284Z,100894.94
2023-05-12T17:18:30.583Z,100893.66
2023-05-12T17:20:58.968Z,100873.50
2023-05-12T17:23:26.916Z,100979.44
2023-05-12T17:25:54.576Z,100937.28
2023-05-12T17:28:22.158Z,100900.81
2023-05-12T17:30:51.575Z,100920.75
2023-05-12T17:33:18.602Z,100994.88
2023-05-12T17:35:57.156Z,100986.25
2023-05-12T17:38:33.547Z,100977.38
2023-05-12T17:41:00.912Z,100984.53
2023-05-12T17:43:29.689Z,100965.06
2023-05-12T17:45:58.053Z,100979.50
2023-05-12T17:48:26.437Z,100962.91
2023-05-12T17:50:53.776Z,100902.72
2023-05-12T17:53:20.883Z,100903.47
2023-05-12T17:55:48.556Z,100899.66
2023-05-12T17:58:15.699Z,100983.09
2023-05-12T18:00:44.810Z,100938.56
2023-05-12T18:03:15.359Z,100898.78
2023-05-12T18:05:45.990Z,100913.50
2023-05-12T18:08:13.032Z,100984.03
2023-05-12T18:10:45.620Z,100986.44
2023-05-12T18:13:16.057Z,100992.84
2023-05-12T18:15:43.799Z,100995.63
2023-05-12T18:18:14.564Z,100919.94
2023-05-12T18:20:43.371Z,100926.94
2023-05-12T18:23:10.421Z,100920.47
2023-05-12T18:25:38.081Z,100926.50
2023-05-12T18:28:08.851Z,100985.06
2023-05-12T18:30:42.245Z,100999.13
2023-05-12T18:33:10.087Z,100968.59
2023-05-12T18:35:38.450Z,100882.88
2023-05-12T18:38:07.507Z,100946.22
2023-05-12T18:40:38.417Z,100933.19
2023-05-12T18:43:05.944Z,100926.84
2023-05-12T18:45:35.501Z,101003.63
2023-05-12T18:48:02.547Z,101001.97
2023-05-12T18:50:30.556Z,100980.03
2023-05-12T18:52:58.064Z,100935.34
2023-05-12T18:55:26.866Z,101013.03
2023-05-12T18:57:54.115Z,100938.75
2023-05-12T19:00:26.027Z,101016.41
2023-05-12T19:02:53.451Z,100956.81
2023-05-12T19:05:21.387Z,100940.16
2023-05-12T19:07:48.824Z,100948.94
2023-05-12T19:10:16.377Z,100957.81
2023-05-12T19:12:45.050Z,100947.19
2023-05-12T19:15:25.754Z,101023.03
2023-05-12T19:17:53.466Z,101033.13
2023-05-12T19:20:20.852Z,100990.78
2023-05-12T19:22:49.202Z,101029.03
2023-05-12T19:25:19.012Z,100995.69
2023-05-12T19:27:47.976Z,100974.41
2023-05-12T19:30:17.653Z,101033.13
2023-05-12T19:32:46.263Z,101005.94
2023-05-12T19:35:14.293Z,101042.28
2023-05-12T19:37:41.552Z,100983.84
2023-05-12T19:40:10.249Z,101050.31
2023-05-12T19:42:38.154Z,100978.66
2023-05-12T19:45:13.447Z,101028.72
2023-05-12T19:47:40.669Z,100980.75
2023-05-12T19:50:09.155Z,101061.41
2023-05-12T19:52:37.361Z,101065.06
2023-05-12T19:55:05.787Z,100942.03
2023-05-12T19:57:32.865Z,101053.72
2023-05-12T20:00:00.194Z,100973.75
2023-05-12T20:02:31.019Z,101054.53
2023-05-12T20:05:00.460Z,100961.81
2023-05-12T20:07:27.543Z,101053.41
2023-05-12T20:09:55.410Z,101048.78
2023-05-12T20:12:22.751Z,101054.09
2023-05-12T20:14:50.117Z,100992.66
2023-05-12T20:17:17.392Z,100973.75
2023-05-12T20:19:46.271Z,100982.16
2023-05-12T20:22:13.499Z,101045.41
2023-05-12T20:24:41.188Z,100966.19
2023-05-12T20:27:09.569Z,100961.69
2023-05-12T20:29:37.054Z,101040.38
2023-05-12T20:32:04.789Z,100990.00
2023-05-12T20:34:32.125Z,100961.09
2023-05-12T20:37:01.082Z,101018.50
2023-05-12T20:39:29.188Z,100958.97
2023-05-12T20:41:56.409Z,100978.19
2023-05-12T20:44:26.442Z,100983.09
2023-05-12T20:46:53.702Z,100966.97
2023-05-12T20:49:21.467Z,100976.00
2023-05-12T20:51:48.412Z,100960.53
2023-05-12T20:54:17.070Z,100978.94
2023-05-12T20:56:44.157Z,100973.03
2023-05-12T20:59:11.492Z,100964.59
2023-05-12T21:01:39.084Z,101038.00
2023-05-12T21:04:09.525Z,100967.53
2023-05-12T21:06:37.126Z,100946.94
2023-05-12T21:09:05.047Z,100962.50
2023-05-12T21:11:33.536Z,100957.16
2023-05-12T21:14:01.476Z,100955.88
2023-05-12T21:16:28.515Z,101039.09
2023-05-12T21:18:56.243Z,100954.63
2023-05-12T21:21:23.539Z,101036.19
2023-05-12T21:23:51.276Z,101034.75
2023-05-12T21:26:18.206Z,100953.22
2023-05-12T21:28:47.102Z,100964.84
2023-05-12T21:31:14.040Z,101031.41
2023-05-12T21:33:41.959Z,100871.16
2023-05-12T21:36:09.025Z,100964.59
2023-05-12T21:38:36.452Z,100974.66
2023-05-12T21:41:03.658Z,100983.91
2023-05-12T21:43:30.948Z,100978.72
2023-05-12T21:46:03.621Z,101049.19
2023-05-12T21:48:31.963Z,100991.81
2023-05-12T21:51:00.032Z,100975.81
2023-05-12T21:53:27.663Z,100998.50
2023-05-12T21:55:55.460Z,100998.34
2023-05-12T21:58:23.769Z,101075.28
2023-05-12T22:00:51.280Z,100999.75
2023-05-12T22:03:21.841Z,101077.13
2023-05-12T22:05:49.068Z,101012.38
2023-05-12T22:08:16.357Z,100991.75
2023-05-12T22:10:43.381Z,100992.56
2023-05-12T22:13:10.784Z,100991.63
2023-05-12T22:15:38.282Z,101003.22
2023-05-12T22:18:05.760Z,101000.88
2023-05-12T22:20:34.069Z,100997.53
2023-05-12T22:23:01.619Z,100995.00
2023-05-12T22:25:28.722Z,100993.16
2023-05-12T22:27:55.965Z,100994.03
2023-05-12T22:30:23.276Z,100961.91
2023-05-12T22:32:51.412Z,101066.06
2023-05-12T22:35:18.551Z,100998.47
2023-05-12T22:37:47.180Z,100990.66
2023-05-12T22:40:14.249Z,101062.38
2023-05-12T22:42:41.726Z,100996.38
2023-05-12T22:45:09.601Z,101012.75
2023-05-12T22:47:37.070Z,100984.75
2023-05-12T22:50:04.391Z,100976.19
2023-05-12T22:52:32.046Z,100987.94
2023-05-12T22:55:00.910Z,101061.75
2023-05-12T22:57:28.247Z,101028.59
2023-05-12T22:59:55.244Z,101060.63
2023-05-12T23:02:22.676Z,100946.66
2023-05-12T23:04:49.734Z,101048.84
2023-05-12T23:07:17.010Z,101048.00
2023-05-12T23:09:44.139Z,100969.94
2023-05-12T23:12:12.776Z,100957.88
2023-05-12T23:14:39.845Z,100964.44
2023-05-12T23:17:07.347Z,100964.16
2023-05-12T23:19:34.353Z,100972.34
2023-05-12T23:22:01.660Z,100960.69
2023-05-12T23:24:28.686Z,101036.19
2023-05-12T23:26:56.194Z,100962.94
2023-05-12T23:29:24.587Z,101023.56
2023-05-12T23:31:51.891Z,100956.47
2023-05-12T23:34:19.015Z,100935.66
2023-05-12T23:36:46.334Z,101049.22
2023-05-12T23:39:13.734Z,100957.28
2023-05-12T23:41:41.176Z,100957.66
2023-05-12T23:44:08.325Z,101033.38
2023-05-12T23:46:37.237Z,100957.31
2023-05-12T23:49:04.722Z,100954.66
2023-05-12T23:51:32.689Z,100959.41
2023-05-12T23:53:59.723Z,100952.97
2023-05-12T23:56:27.040Z,101025.41
2023-05-12T23:58:54.027Z,101003.38
